sensor_id;sensor_type;location;lat;lon;timestamp;temperature;humidity
52267;DHT22;38223;50.940;4.034;2022-10-17T00:00:10;17.40;99.90
52267;DHT22;38223;50.940;4.034;2022-10-17T00:02:44;17.30;99.90
52267;DHT22;38223;50.940;4.034;2022-10-17T00:05:14;17.30;99.90
52267;DHT22;38223;50.940;4.034;2022-10-17T00:07:50;17.30;99.90
52267;DHT22;38223;50.940;4.034;2022-10-17T00:10:23;17.50;99.90
52267;DHT22;38223;50.940;4.034;2022-10-17T00:12:58;17.50;99.90
52267;DHT22;38223;50.940;4.034;2022-10-17T00:15:27;17.50;99.90
52267;DHT22;38223;50.940;4.034;2022-10-17T00:17:58;17.50;99.90
52267;DHT22;38223;50.940;4.034;2022-10-17T00:20:34;17.40;99.90
52267;DHT22;38223;50.940;4.034;2022-10-17T00:23:05;17.30;99.90
52267;DHT22;38223;50.940;4.034;2022-10-17T00:25:38;17.30;99.90
52267;DHT22;38223;50.940;4.034;2022-10-17T00:28:13;17.20;99.90
52267;DHT22;38223;50.940;4.034;2022-10-17T00:30:45;17.20;99.90
52267;DHT22;38223;50.940;4.034;2022-10-17T00:33:22;17.10;99.90
52267;DHT22;38223;50.940;4.034;2022-10-17T00:36:00;17.00;99.90
52267;DHT22;38223;50.940;4.034;2022-10-17T00:38:26;16.90;99.90
52267;DHT22;38223;50.940;4.034;2022-10-17T00:40:59;16.90;99.90
52267;DHT22;38223;50.940;4.034;2022-10-17T00:46:23;16.90;99.90
52267;DHT22;38223;50.940;4.034;2022-10-17T00:48:57;16.90;99.90
52267;DHT22;38223;50.940;4.034;2022-10-17T00:51:33;16.90;99.90
52267;DHT22;38223;50.940;4.034;2022-10-17T00:54:03;16.90;99.90
52267;DHT22;38223;50.940;4.034;2022-10-17T00:56:36;16.90;99.90
52267;DHT22;38223;50.940;4.034;2022-10-17T00:59:13;17.00;99.90
52267;DHT22;38223;50.940;4.034;2022-10-17T01:01:55;16.90;99.90
52267;DHT22;38223;50.940;4.034;2022-10-17T01:04:23;16.90;99.90
52267;DHT22;38223;50.940;4.034;2022-10-17T01:06:58;16.90;99.90
52267;DHT22;38223;50.940;4.034;2022-10-17T01:09:35;17.00;99.90
52267;DHT22;38223;50.940;4.034;2022-10-17T01:12:20;17.00;99.90
52267;DHT22;38223;50.940;4.034;2022-10-17T01:18:08;17.00;99.90
52267;DHT22;38223;50.940;4.034;2022-10-17T01:32:43;16.90;99.90
52267;DHT22;38223;50.940;4.034;2022-10-17T01:35:31;16.90;99.90
52267;DHT22;38223;50.940;4.034;2022-10-17T01:38:04;17.00;99.90
52267;DHT22;38223;50.940;4.034;2022-10-17T01:40:45;16.90;99.90
52267;DHT22;38223;50.940;4.034;2022-10-17T01:43:32;17.00;99.90
52267;DHT22;38223;50.940;4.034;2022-10-17T01:46:06;17.00;99.90
52267;DHT22;38223;50.940;4.034;2022-10-17T01:48:38;17.10;99.90
52267;DHT22;38223;50.940;4.034;2022-10-17T01:51:17;17.10;99.90
52267;DHT22;38223;50.940;4.034;2022-10-17T01:53:57;17.20;99.90
52267;DHT22;38223;50.940;4.034;2022-10-17T01:56:32;17.30;99.90
52267;DHT22;38223;50.940;4.034;2022-10-17T01:59:11;17.30;99.90
52267;DHT22;38223;50.940;4.034;2022-10-17T02:01:45;17.30;99.90
52267;DHT22;38223;50.940;4.034;2022-10-17T02:04:16;17.30;99.90
52267;DHT22;38223;50.940;4.034;2022-10-17T02:06:51;17.30;99.90
52267;DHT22;38223;50.940;4.034;2022-10-17T02:09:25;17.30;99.90
52267;DHT22;38223;50.940;4.034;2022-10-17T02:12:11;17.40;99.90
52267;DHT22;38223;50.940;4.034;2022-10-17T02:23:02;17.30;99.90
52267;DHT22;38223;50.940;4.034;2022-10-17T02:28:29;17.30;99.90
52267;DHT22;38223;50.940;4.034;2022-10-17T02:31:02;17.40;99.90
52267;DHT22;38223;50.940;4.034;2022-10-17T02:33:38;17.40;99.90
52267;DHT22;38223;50.940;4.034;2022-10-17T02:36:13;17.40;99.90
52267;DHT22;38223;50.940;4.034;2022-10-17T02:38:46;17.50;99.90
52267;DHT22;38223;50.940;4.034;2022-10-17T02:41:24;17.50;99.90
52267;DHT22;38223;50.940;4.034;2022-10-17T02:43:58;17.50;99.90
52267;DHT22;38223;50.940;4.034;2022-10-17T02:46:32;17.60;99.90
52267;DHT22;38223;50.940;4.034;2022-10-17T02:57:55;17.70;99.90
52267;DHT22;38223;50.940;4.034;2022-10-17T03:00:27;17.80;99.90
52267;DHT22;38223;50.940;4.034;2022-10-17T03:03:00;17.90;99.90
52267;DHT22;38223;50.940;4.034;2022-10-17T03:05:33;17.90;99.90
52267;DHT22;38223;50.940;4.034;2022-10-17T03:08:10;18.00;99.90
52267;DHT22;38223;50.940;4.034;2022-10-17T03:10:43;18.00;99.90
52267;DHT22;38223;50.940;4.034;2022-10-17T03:13:16;18.10;99.90
52267;DHT22;38223;50.940;4.034;2022-10-17T03:15:49;18.10;99.90
52267;DHT22;38223;50.940;4.034;2022-10-17T03:18:25;18.20;99.90
52267;DHT22;38223;50.940;4.034;2022-10-17T03:20:54;18.20;99.90
52267;DHT22;38223;50.940;4.034;2022-10-17T03:23:28;18.20;99.90
52267;DHT22;38223;50.940;4.034;2022-10-17T03:26:03;18.40;99.90
52267;DHT22;38223;50.940;4.034;2022-10-17T03:28:40;18.50;99.90
52267;DHT22;38223;50.940;4.034;2022-10-17T03:31:17;18.50;99.90
52267;DHT22;38223;50.940;4.034;2022-10-17T03:33:49;18.50;99.90
52267;DHT22;38223;50.940;4.034;2022-10-17T03:36:26;18.40;99.90
52267;DHT22;38223;50.940;4.034;2022-10-17T03:39:03;18.50;99.90
52267;DHT22;38223;50.940;4.034;2022-10-17T03:41:37;18.60;99.90
52267;DHT22;38223;50.940;4.034;2022-10-17T03:44:08;18.60;99.90
52267;DHT22;38223;50.940;4.034;2022-10-17T03:46:38;18.60;99.90
52267;DHT22;38223;50.940;4.034;2022-10-17T03:49:13;18.70;99.90
52267;DHT22;38223;50.940;4.034;2022-10-17T03:51:42;18.70;99.90
52267;DHT22;38223;50.940;4.034;2022-10-17T03:54:18;18.80;99.90
52267;DHT22;38223;50.940;4.034;2022-10-17T03:56:48;18.70;99.90
52267;DHT22;38223;50.940;4.034;2022-10-17T03:59:24;18.70;99.90
52267;DHT22;38223;50.940;4.034;2022-10-17T04:01:55;18.70;99.90
52267;DHT22;38223;50.940;4.034;2022-10-17T04:04:31;18.70;99.90
52267;DHT22;38223;50.940;4.034;2022-10-17T04:07:01;18.70;99.90
52267;DHT22;38223;50.940;4.034;2022-10-17T04:09:36;18.70;99.90
52267;DHT22;38223;50.940;4.034;2022-10-17T04:12:09;18.70;99.90
52267;DHT22;38223;50.940;4.034;2022-10-17T04:14:41;18.70;99.90
52267;DHT22;38223;50.940;4.034;2022-10-17T04:17:18;18.80;99.90
52267;DHT22;38223;50.940;4.034;2022-10-17T04:19:50;18.80;99.90
52267;DHT22;38223;50.940;4.034;2022-10-17T04:22:26;18.80;99.90
52267;DHT22;38223;50.940;4.034;2022-10-17T04:24:58;18.80;99.90
52267;DHT22;38223;50.940;4.034;2022-10-17T04:27:30;18.80;99.90
52267;DHT22;38223;50.940;4.034;2022-10-17T04:30:06;18.70;99.90
52267;DHT22;38223;50.940;4.034;2022-10-17T04:32:38;18.70;99.90
52267;DHT22;38223;50.940;4.034;2022-10-17T04:35:15;18.70;99.90
52267;DHT22;38223;50.940;4.034;2022-10-17T04:37:44;18.70;99.90
52267;DHT22;38223;50.940;4.034;2022-10-17T04:40:21;18.70;99.90
52267;DHT22;38223;50.940;4.034;2022-10-17T04:42:50;18.70;99.90
52267;DHT22;38223;50.940;4.034;2022-10-17T04:45:21;18.70;99.90
52267;DHT22;38223;50.940;4.034;2022-10-17T04:47:56;18.60;99.90
52267;DHT22;38223;50.940;4.034;2022-10-17T04:50:26;18.60;99.90
52267;DHT22;38223;50.940;4.034;2022-10-17T04:53:01;18.50;99.90
52267;DHT22;38223;50.940;4.034;2022-10-17T04:55:37;18.50;99.90
52267;DHT22;38223;50.940;4.034;2022-10-17T04:58:12;18.50;99.90
52267;DHT22;38223;50.940;4.034;2022-10-17T05:00:43;18.60;99.90
52267;DHT22;38223;50.940;4.034;2022-10-17T05:03:18;18.60;99.90
52267;DHT22;38223;50.940;4.034;2022-10-17T05:05:47;18.50;99.90
52267;DHT22;38223;50.940;4.034;2022-10-17T05:08:19;18.50;99.90
52267;DHT22;38223;50.940;4.034;2022-10-17T05:10:53;18.50;99.90
52267;DHT22;38223;50.940;4.034;2022-10-17T05:13:24;18.50;99.90
52267;DHT22;38223;50.940;4.034;2022-10-17T05:16:00;18.60;99.90
52267;DHT22;38223;50.940;4.034;2022-10-17T05:18:31;18.60;99.90
52267;DHT22;38223;50.940;4.034;2022-10-17T05:21:05;18.60;99.90
52267;DHT22;38223;50.940;4.034;2022-10-17T05:23:39;18.60;99.90
52267;DHT22;38223;50.940;4.034;2022-10-17T05:26:10;18.70;99.90
52267;DHT22;38223;50.940;4.034;2022-10-17T05:28:42;18.60;99.90
52267;DHT22;38223;50.940;4.034;2022-10-17T05:31:15;18.60;99.90
52267;DHT22;38223;50.940;4.034;2022-10-17T05:33:49;18.50;99.90
52267;DHT22;38223;50.940;4.034;2022-10-17T05:36:22;18.50;99.90
52267;DHT22;38223;50.940;4.034;2022-10-17T05:38:56;18.60;99.90
52267;DHT22;38223;50.940;4.034;2022-10-17T05:41:32;18.60;99.90
52267;DHT22;38223;50.940;4.034;2022-10-17T05:44:03;18.50;99.90
52267;DHT22;38223;50.940;4.034;2022-10-17T05:46:38;18.60;99.90
52267;DHT22;38223;50.940;4.034;2022-10-17T05:49:11;18.60;99.90
52267;DHT22;38223;50.940;4.034;2022-10-17T05:51:42;18.50;99.90
52267;DHT22;38223;50.940;4.034;2022-10-17T05:54:14;18.60;99.90
52267;DHT22;38223;50.940;4.034;2022-10-17T05:56:44;18.70;99.90
52267;DHT22;38223;50.940;4.034;2022-10-17T05:59:16;18.60;99.90
52267;DHT22;38223;50.940;4.034;2022-10-17T06:01:46;18.60;99.90
52267;DHT22;38223;50.940;4.034;2022-10-17T06:04:19;18.60;99.90
52267;DHT22;38223;50.940;4.034;2022-10-17T06:06:52;18.60;99.90
52267;DHT22;38223;50.940;4.034;2022-10-17T06:09:25;18.50;99.90
52267;DHT22;38223;50.940;4.034;2022-10-17T06:11:54;18.50;99.90
52267;DHT22;38223;50.940;4.034;2022-10-17T06:14:26;18.50;99.90
52267;DHT22;38223;50.940;4.034;2022-10-17T06:16:56;18.60;99.90
52267;DHT22;38223;50.940;4.034;2022-10-17T06:19:27;18.50;99.90
52267;DHT22;38223;50.940;4.034;2022-10-17T06:21:59;18.40;99.90
52267;DHT22;38223;50.940;4.034;2022-10-17T06:24:29;18.40;99.90
52267;DHT22;38223;50.940;4.034;2022-10-17T06:27:00;18.50;99.90
52267;DHT22;38223;50.940;4.034;2022-10-17T06:29:30;18.40;99.90
52267;DHT22;38223;50.940;4.034;2022-10-17T06:32:01;18.40;99.90
52267;DHT22;38223;50.940;4.034;2022-10-17T06:34:31;18.40;99.90
52267;DHT22;38223;50.940;4.034;2022-10-17T06:37:00;18.30;99.90
52267;DHT22;38223;50.940;4.034;2022-10-17T06:39:35;18.20;99.90
52267;DHT22;38223;50.940;4.034;2022-10-17T06:42:07;18.10;99.90
52267;DHT22;38223;50.940;4.034;2022-10-17T06:44:38;17.90;99.90
52267;DHT22;38223;50.940;4.034;2022-10-17T06:47:10;17.80;99.90
52267;DHT22;38223;50.940;4.034;2022-10-17T06:49:42;17.70;99.90
52267;DHT22;38223;50.940;4.034;2022-10-17T06:52:15;17.70;99.90
52267;DHT22;38223;50.940;4.034;2022-10-17T06:54:47;17.70;99.90
52267;DHT22;38223;50.940;4.034;2022-10-17T06:57:19;17.70;99.90
52267;DHT22;38223;50.940;4.034;2022-10-17T06:59:48;17.80;99.90
52267;DHT22;38223;50.940;4.034;2022-10-17T07:02:18;17.80;99.90
52267;DHT22;38223;50.940;4.034;2022-10-17T07:04:52;17.70;99.90
52267;DHT22;38223;50.940;4.034;2022-10-17T07:07:20;17.70;99.90
52267;DHT22;38223;50.940;4.034;2022-10-17T07:09:52;17.60;99.90
52267;DHT22;38223;50.940;4.034;2022-10-17T07:12:23;17.60;99.90
52267;DHT22;38223;50.940;4.034;2022-10-17T07:14:54;17.50;99.90
52267;DHT22;38223;50.940;4.034;2022-10-17T07:17:26;17.50;99.90
52267;DHT22;38223;50.940;4.034;2022-10-17T07:19:58;17.40;99.90
52267;DHT22;38223;50.940;4.034;2022-10-17T07:22:28;17.40;99.90
52267;DHT22;38223;50.940;4.034;2022-10-17T07:25:04;17.40;99.90
52267;DHT22;38223;50.940;4.034;2022-10-17T07:27:32;17.40;99.90
52267;DHT22;38223;50.940;4.034;2022-10-17T07:30:02;17.40;99.90
52267;DHT22;38223;50.940;4.034;2022-10-17T07:32:33;17.30;99.90
52267;DHT22;38223;50.940;4.034;2022-10-17T07:35:04;17.40;99.90
52267;DHT22;38223;50.940;4.034;2022-10-17T07:37:33;17.40;99.90
52267;DHT22;38223;50.940;4.034;2022-10-17T07:40:03;17.20;99.90
52267;DHT22;38223;50.940;4.034;2022-10-17T07:42:38;17.30;99.90
52267;DHT22;38223;50.940;4.034;2022-10-17T07:45:11;17.40;99.90
52267;DHT22;38223;50.940;4.034;2022-10-17T07:47:43;17.50;99.90
52267;DHT22;38223;50.940;4.034;2022-10-17T07:50:15;17.40;99.90
52267;DHT22;38223;50.940;4.034;2022-10-17T07:53:12;17.40;99.90
52267;DHT22;38223;50.940;4.034;2022-10-17T07:55:43;17.40;99.90
52267;DHT22;38223;50.940;4.034;2022-10-17T07:58:17;17.50;99.90
52267;DHT22;38223;50.940;4.034;2022-10-17T08:00:44;17.50;99.90
52267;DHT22;38223;50.940;4.034;2022-10-17T08:03:14;17.50;99.90
52267;DHT22;38223;50.940;4.034;2022-10-17T08:05:44;17.50;99.90
52267;DHT22;38223;50.940;4.034;2022-10-17T08:08:16;17.30;99.90
52267;DHT22;38223;50.940;4.034;2022-10-17T08:10:46;17.20;99.90
52267;DHT22;38223;50.940;4.034;2022-10-17T08:13:16;17.20;99.90
52267;DHT22;38223;50.940;4.034;2022-10-17T08:15:45;17.30;99.90
52267;DHT22;38223;50.940;4.034;2022-10-17T08:18:17;17.30;99.90
52267;DHT22;38223;50.940;4.034;2022-10-17T08:20:54;17.40;99.90
52267;DHT22;38223;50.940;4.034;2022-10-17T08:23:24;17.40;99.90
52267;DHT22;38223;50.940;4.034;2022-10-17T08:25:59;17.60;99.90
52267;DHT22;38223;50.940;4.034;2022-10-17T08:28:33;17.50;99.90
52267;DHT22;38223;50.940;4.034;2022-10-17T08:31:09;17.50;99.90
52267;DHT22;38223;50.940;4.034;2022-10-17T08:33:41;17.50;99.90
52267;DHT22;38223;50.940;4.034;2022-10-17T08:36:20;17.50;99.90
52267;DHT22;38223;50.940;4.034;2022-10-17T08:38:47;17.60;99.90
52267;DHT22;38223;50.940;4.034;2022-10-17T08:44:56;17.80;99.90
52267;DHT22;38223;50.940;4.034;2022-10-17T08:47:33;17.70;99.90
52267;DHT22;38223;50.940;4.034;2022-10-17T08:50:05;17.70;99.90
52267;DHT22;38223;50.940;4.034;2022-10-17T08:52:55;17.60;99.90
52267;DHT22;38223;50.940;4.034;2022-10-17T08:55:38;17.50;99.90
52267;DHT22;38223;50.940;4.034;2022-10-17T08:58:11;17.60;99.90
52267;DHT22;38223;50.940;4.034;2022-10-17T09:00:49;17.70;99.90
52267;DHT22;38223;50.940;4.034;2022-10-17T09:03:29;17.60;99.90
52267;DHT22;38223;50.940;4.034;2022-10-17T09:11:42;17.80;99.90
52267;DHT22;38223;50.940;4.034;2022-10-17T09:14:31;17.70;99.90
52267;DHT22;38223;50.940;4.034;2022-10-17T09:20:03;17.80;99.90
52267;DHT22;38223;50.940;4.034;2022-10-17T09:22:36;17.90;99.90
52267;DHT22;38223;50.940;4.034;2022-10-17T09:25:12;17.80;99.90
52267;DHT22;38223;50.940;4.034;2022-10-17T09:27:55;18.00;99.90
52267;DHT22;38223;50.940;4.034;2022-10-17T09:30:43;18.00;99.90
52267;DHT22;38223;50.940;4.034;2022-10-17T09:33:19;18.00;99.90
52267;DHT22;38223;50.940;4.034;2022-10-17T09:35:50;18.00;99.90
52267;DHT22;38223;50.940;4.034;2022-10-17T09:38:25;18.00;99.90
52267;DHT22;38223;50.940;4.034;2022-10-17T09:40:58;18.00;99.90
52267;DHT22;38223;50.940;4.034;2022-10-17T09:43:31;18.10;99.90
52267;DHT22;38223;50.940;4.034;2022-10-17T09:46:55;18.10;99.90
52267;DHT22;38223;50.940;4.034;2022-10-17T09:48:44;18.20;99.90
52267;DHT22;38223;50.940;4.034;2022-10-17T09:51:11;18.30;99.90
52267;DHT22;38223;50.940;4.034;2022-10-17T09:53:45;18.30;99.90
52267;DHT22;38223;50.940;4.034;2022-10-17T09:56:18;18.30;99.90
52267;DHT22;38223;50.940;4.034;2022-10-17T09:58:52;18.30;99.90
52267;DHT22;38223;50.940;4.034;2022-10-17T10:01:30;18.40;99.90
52267;DHT22;38223;50.940;4.034;2022-10-17T10:04:16;18.40;99.90
52267;DHT22;38223;50.940;4.034;2022-10-17T10:07:03;18.50;99.90
52267;DHT22;38223;50.940;4.034;2022-10-17T10:09:37;18.50;99.90
52267;DHT22;38223;50.940;4.034;2022-10-17T10:12:32;18.50;99.90
52267;DHT22;38223;50.940;4.034;2022-10-17T10:14:42;18.50;99.90
52267;DHT22;38223;50.940;4.034;2022-10-17T10:17:34;18.40;99.90
52267;DHT22;38223;50.940;4.034;2022-10-17T10:19:48;18.40;99.90
52267;DHT22;38223;50.940;4.034;2022-10-17T10:22:18;18.40;99.90
52267;DHT22;38223;50.940;4.034;2022-10-17T10:27:39;18.40;99.90
52267;DHT22;38223;50.940;4.034;2022-10-17T10:30:21;18.40;99.90
52267;DHT22;38223;50.940;4.034;2022-10-17T10:32:54;18.30;99.90
52267;DHT22;38223;50.940;4.034;2022-10-17T10:35:34;18.30;99.90
52267;DHT22;38223;50.940;4.034;2022-10-17T10:38:09;18.30;99.90
52267;DHT22;38223;50.940;4.034;2022-10-17T10:40:47;18.20;99.90
52267;DHT22;38223;50.940;4.034;2022-10-17T10:43:37;18.20;99.90
52267;DHT22;38223;50.940;4.034;2022-10-17T10:46:29;18.30;99.90
52267;DHT22;38223;50.940;4.034;2022-10-17T10:48:57;18.30;99.90
52267;DHT22;38223;50.940;4.034;2022-10-17T10:51:35;18.30;99.90
52267;DHT22;38223;50.940;4.034;2022-10-17T10:54:11;18.40;99.90
52267;DHT22;38223;50.940;4.034;2022-10-17T10:56:58;18.50;99.90
52267;DHT22;38223;50.940;4.034;2022-10-17T10:59:42;18.70;99.90
52267;DHT22;38223;50.940;4.034;2022-10-17T11:02:14;18.80;99.90
52267;DHT22;38223;50.940;4.034;2022-10-17T11:05:02;18.70;99.90
52267;DHT22;38223;50.940;4.034;2022-10-17T11:13:24;18.70;99.90
52267;DHT22;38223;50.940;4.034;2022-10-17T11:16:00;18.80;99.90
52267;DHT22;38223;50.940;4.034;2022-10-17T11:18:38;18.80;99.90
52267;DHT22;38223;50.940;4.034;2022-10-17T11:24:15;18.90;99.90
52267;DHT22;38223;50.940;4.034;2022-10-17T11:26:58;19.00;99.90
52267;DHT22;38223;50.940;4.034;2022-10-17T11:29:30;18.90;99.90
52267;DHT22;38223;50.940;4.034;2022-10-17T11:34:49;19.00;99.90
52267;DHT22;38223;50.940;4.034;2022-10-17T11:37:23;18.90;99.90
52267;DHT22;38223;50.940;4.034;2022-10-17T11:39:57;19.00;99.90
52267;DHT22;38223;50.940;4.034;2022-10-17T11:42:32;19.10;99.90
52267;DHT22;38223;50.940;4.034;2022-10-17T11:45:05;19.20;99.90
52267;DHT22;38223;50.940;4.034;2022-10-17T11:47:42;19.20;99.90
52267;DHT22;38223;50.940;4.034;2022-10-17T11:50:22;19.10;99.90
52267;DHT22;38223;50.940;4.034;2022-10-17T11:52:56;19.10;99.90
52267;DHT22;38223;50.940;4.034;2022-10-17T11:55:29;19.10;99.90
52267;DHT22;38223;50.940;4.034;2022-10-17T11:58:22;19.10;99.90
52267;DHT22;38223;50.940;4.034;2022-10-17T12:04:07;19.20;99.90
52267;DHT22;38223;50.940;4.034;2022-10-17T12:07:05;19.10;99.90
52267;DHT22;38223;50.940;4.034;2022-10-17T12:12:32;19.10;99.90
52267;DHT22;38223;50.940;4.034;2022-10-17T12:18:03;19.10;99.90
52267;DHT22;38223;50.940;4.034;2022-10-17T12:20:35;19.00;99.90
52267;DHT22;38223;50.940;4.034;2022-10-17T12:23:17;19.10;99.90
52267;DHT22;38223;50.940;4.034;2022-10-17T12:25:59;19.20;99.90
52267;DHT22;38223;50.940;4.034;2022-10-17T12:28:45;19.10;99.90
52267;DHT22;38223;50.940;4.034;2022-10-17T12:31:22;19.10;99.90
52267;DHT22;38223;50.940;4.034;2022-10-17T12:34:00;19.20;99.90
52267;DHT22;38223;50.940;4.034;2022-10-17T12:36:35;19.10;99.90
52267;DHT22;38223;50.940;4.034;2022-10-17T12:55:13;19.50;99.90
52267;DHT22;38223;50.940;4.034;2022-10-17T13:00:28;19.50;99.90
52267;DHT22;38223;50.940;4.034;2022-10-17T13:03:02;19.60;99.90
52267;DHT22;38223;50.940;4.034;2022-10-17T13:05:37;19.60;99.90
52267;DHT22;38223;50.940;4.034;2022-10-17T13:08:14;19.60;99.90
52267;DHT22;38223;50.940;4.034;2022-10-17T13:10:43;19.70;99.90
52267;DHT22;38223;50.940;4.034;2022-10-17T13:13:20;19.60;99.90
52267;DHT22;38223;50.940;4.034;2022-10-17T13:15:54;19.60;99.90
52267;DHT22;38223;50.940;4.034;2022-10-17T13:18:27;19.70;99.90
52267;DHT22;38223;50.940;4.034;2022-10-17T13:21:32;19.60;99.90
52267;DHT22;38223;50.940;4.034;2022-10-17T13:23:38;19.80;99.90
52267;DHT22;38223;50.940;4.034;2022-10-17T13:26:18;19.90;99.90
52267;DHT22;38223;50.940;4.034;2022-10-17T13:29:12;19.80;99.90
52267;DHT22;38223;50.940;4.034;2022-10-17T13:31:44;19.90;99.90
52267;DHT22;38223;50.940;4.034;2022-10-17T13:34:17;19.90;99.90
52267;DHT22;38223;50.940;4.034;2022-10-17T13:37:05;19.90;99.90
52267;DHT22;38223;50.940;4.034;2022-10-17T13:39:41;19.90;99.90
52267;DHT22;38223;50.940;4.034;2022-10-17T13:42:24;19.90;99.90
52267;DHT22;38223;50.940;4.034;2022-10-17T13:44:58;19.90;99.90
52267;DHT22;38223;50.940;4.034;2022-10-17T13:47:35;19.80;99.90
52267;DHT22;38223;50.940;4.034;2022-10-17T13:50:15;20.00;99.90
52267;DHT22;38223;50.940;4.034;2022-10-17T13:52:39;20.10;99.90
52267;DHT22;38223;50.940;4.034;2022-10-17T13:55:16;20.10;99.90
52267;DHT22;38223;50.940;4.034;2022-10-17T13:57:46;20.10;99.90
52267;DHT22;38223;50.940;4.034;2022-10-17T14:00:19;20.00;99.90
52267;DHT22;38223;50.940;4.034;2022-10-17T14:02:51;20.10;99.90
52267;DHT22;38223;50.940;4.034;2022-10-17T14:05:24;20.00;99.90
52267;DHT22;38223;50.940;4.034;2022-10-17T14:08:05;20.10;99.90
52267;DHT22;38223;50.940;4.034;2022-10-17T14:10:37;20.10;99.90
52267;DHT22;38223;50.940;4.034;2022-10-17T14:13:25;20.00;99.90
52267;DHT22;38223;50.940;4.034;2022-10-17T14:15:58;20.10;99.90
52267;DHT22;38223;50.940;4.034;2022-10-17T14:18:33;20.00;99.90
52267;DHT22;38223;50.940;4.034;2022-10-17T14:21:08;20.00;99.90
52267;DHT22;38223;50.940;4.034;2022-10-17T14:23:42;20.00;99.90
52267;DHT22;38223;50.940;4.034;2022-10-17T14:26:23;19.90;99.90
52267;DHT22;38223;50.940;4.034;2022-10-17T14:29:17;20.10;99.90
52267;DHT22;38223;50.940;4.034;2022-10-17T14:31:39;20.10;99.90
52267;DHT22;38223;50.940;4.034;2022-10-17T14:34:25;20.10;99.90
52267;DHT22;38223;50.940;4.034;2022-10-17T14:36:56;20.00;99.90
52267;DHT22;38223;50.940;4.034;2022-10-17T14:39:31;19.90;99.90
52267;DHT22;38223;50.940;4.034;2022-10-17T14:42:02;19.90;99.90
52267;DHT22;38223;50.940;4.034;2022-10-17T14:44:38;19.90;99.90
52267;DHT22;38223;50.940;4.034;2022-10-17T14:47:14;19.90;99.90
52267;DHT22;38223;50.940;4.034;2022-10-17T14:49:41;19.80;99.90
52267;DHT22;38223;50.940;4.034;2022-10-17T14:54:52;19.80;99.90
52267;DHT22;38223;50.940;4.034;2022-10-17T15:00:06;20.00;99.90
52267;DHT22;38223;50.940;4.034;2022-10-17T15:02:36;20.00;99.90
52267;DHT22;38223;50.940;4.034;2022-10-17T15:05:07;20.10;99.90
52267;DHT22;38223;50.940;4.034;2022-10-17T15:07:38;20.00;99.90
52267;DHT22;38223;50.940;4.034;2022-10-17T15:10:31;19.90;99.90
52267;DHT22;38223;50.940;4.034;2022-10-17T15:13:00;19.90;99.90
52267;DHT22;38223;50.940;4.034;2022-10-17T15:15:37;19.90;99.90
52267;DHT22;38223;50.940;4.034;2022-10-17T15:18:12;19.90;99.90
52267;DHT22;38223;50.940;4.034;2022-10-17T15:20:50;19.80;99.90
52267;DHT22;38223;50.940;4.034;2022-10-17T15:23:27;19.70;99.90
52267;DHT22;38223;50.940;4.034;2022-10-17T15:26:02;19.70;99.90
52267;DHT22;38223;50.940;4.034;2022-10-17T15:28:33;19.60;99.90
52267;DHT22;38223;50.940;4.034;2022-10-17T15:31:08;19.60;99.90
52267;DHT22;38223;50.940;4.034;2022-10-17T15:33:36;19.50;99.90
52267;DHT22;38223;50.940;4.034;2022-10-17T15:36:28;19.60;99.90
52267;DHT22;38223;50.940;4.034;2022-10-17T15:38:36;19.50;99.90
52267;DHT22;38223;50.940;4.034;2022-10-17T15:41:12;19.70;99.90
52267;DHT22;38223;50.940;4.034;2022-10-17T15:43:45;19.70;99.90
52267;DHT22;38223;50.940;4.034;2022-10-17T15:46:17;19.60;99.90
52267;DHT22;38223;50.940;4.034;2022-10-17T15:48:49;19.50;99.90
52267;DHT22;38223;50.940;4.034;2022-10-17T15:51:23;19.60;99.90
52267;DHT22;38223;50.940;4.034;2022-10-17T15:53:53;19.70;99.90
52267;DHT22;38223;50.940;4.034;2022-10-17T15:56:30;19.80;99.90
52267;DHT22;38223;50.940;4.034;2022-10-17T15:59:11;19.90;99.90
52267;DHT22;38223;50.940;4.034;2022-10-17T16:01:40;19.90;99.90
52267;DHT22;38223;50.940;4.034;2022-10-17T16:04:13;20.00;99.90
52267;DHT22;38223;50.940;4.034;2022-10-17T16:06:44;20.10;99.90
52267;DHT22;38223;50.940;4.034;2022-10-17T16:09:19;20.00;99.90
52267;DHT22;38223;50.940;4.034;2022-10-17T16:11:49;19.90;99.90
52267;DHT22;38223;50.940;4.034;2022-10-17T16:14:26;19.80;99.90
52267;DHT22;38223;50.940;4.034;2022-10-17T16:17:00;19.80;99.90
52267;DHT22;38223;50.940;4.034;2022-10-17T16:19:34;19.80;99.90
52267;DHT22;38223;50.940;4.034;2022-10-17T16:22:13;19.70;99.90
52267;DHT22;38223;50.940;4.034;2022-10-17T16:24:40;19.70;99.90
52267;DHT22;38223;50.940;4.034;2022-10-17T16:27:14;19.70;99.90
52267;DHT22;38223;50.940;4.034;2022-10-17T16:29:45;19.60;99.90
52267;DHT22;38223;50.940;4.034;2022-10-17T16:32:15;19.70;99.90
52267;DHT22;38223;50.940;4.034;2022-10-17T16:34:52;19.70;99.90
52267;DHT22;38223;50.940;4.034;2022-10-17T16:37:26;19.80;99.90
52267;DHT22;38223;50.940;4.034;2022-10-17T16:40:02;19.70;99.90
52267;DHT22;38223;50.940;4.034;2022-10-17T16:42:33;19.80;99.90
52267;DHT22;38223;50.940;4.034;2022-10-17T16:45:06;19.60;99.90
52267;DHT22;38223;50.940;4.034;2022-10-17T16:47:38;19.70;99.90
52267;DHT22;38223;50.940;4.034;2022-10-17T16:50:16;19.70;99.90
52267;DHT22;38223;50.940;4.034;2022-10-17T16:52:46;19.60;99.90
52267;DHT22;38223;50.940;4.034;2022-10-17T16:55:16;19.60;99.90
52267;DHT22;38223;50.940;4.034;2022-10-17T16:57:51;19.50;99.90
52267;DHT22;38223;50.940;4.034;2022-10-17T17:00:24;19.50;99.90
52267;DHT22;38223;50.940;4.034;2022-10-17T17:02:55;19.40;99.90
52267;DHT22;38223;50.940;4.034;2022-10-17T17:05:29;19.40;99.90
52267;DHT22;38223;50.940;4.034;2022-10-17T17:08:03;19.30;99.90
52267;DHT22;38223;50.940;4.034;2022-10-17T17:10:35;19.40;99.90
52267;DHT22;38223;50.940;4.034;2022-10-17T17:13:10;19.50;99.90
52267;DHT22;38223;50.940;4.034;2022-10-17T17:15:42;19.50;99.90
52267;DHT22;38223;50.940;4.034;2022-10-17T17:18:16;19.40;99.90
52267;DHT22;38223;50.940;4.034;2022-10-17T17:20:46;19.40;99.90
52267;DHT22;38223;50.940;4.034;2022-10-17T17:23:20;19.30;99.90
52267;DHT22;38223;50.940;4.034;2022-10-17T17:25:59;19.30;99.90
52267;DHT22;38223;50.940;4.034;2022-10-17T17:28:29;19.30;99.90
52267;DHT22;38223;50.940;4.034;2022-10-17T17:31:05;19.20;99.90
52267;DHT22;38223;50.940;4.034;2022-10-17T17:33:35;19.10;99.90
52267;DHT22;38223;50.940;4.034;2022-10-17T17:36:13;19.10;99.90
52267;DHT22;38223;50.940;4.034;2022-10-17T17:38:45;19.10;99.90
52267;DHT22;38223;50.940;4.034;2022-10-17T17:41:19;19.20;99.90
52267;DHT22;38223;50.940;4.034;2022-10-17T17:43:52;19.30;99.90
52267;DHT22;38223;50.940;4.034;2022-10-17T17:46:25;19.30;99.90
52267;DHT22;38223;50.940;4.034;2022-10-17T17:49:02;19.20;99.90
52267;DHT22;38223;50.940;4.034;2022-10-17T17:51:32;19.30;99.90